sensor_id;sensor_type;location;lat;lon;timestamp;pressure;altitude;pressure_sealevel;temperature;humidity
58534;BME280;44109;52.398;7.024;2023-12-20T00:00:49;101165.97;;;6.48;100.00
58534;BME280;44109;52.398;7.024;2023-12-20T00:03:16;101158.09;;;6.38;100.00
58534;BME280;44109;52.398;7.024;2023-12-20T00:05:45;101158.13;;;6.58;100.00
58534;BME280;44109;52.398;7.024;2023-12-20T00:08:15;101161.97;;;6.66;100.00
58534;BME280;44109;52.398;7.024;2023-12-20T00:10:43;101167.22;;;6.59;100.00
58534;BME280;44109;52.398;7.024;2023-12-20T00:13:12;101148.63;;;6.47;100.00
58534;BME280;44109;52.398;7.024;2023-12-20T00:15:40;101168.16;;;6.63;100.00
58534;BME280;44109;52.398;7.024;2023-12-20T00:18:07;101163.84;;;6.53;100.00
58534;BME280;44109;52.398;7.024;2023-12-20T00:20:35;101163.88;;;6.45;100.00
58534;BME280;44109;52.398;7.024;2023-12-20T00:23:04;101159.50;;;6.44;100.00
58534;BME280;44109;52.398;7.024;2023-12-20T00:25:32;101154.94;;;6.48;100.00
58534;BME280;44109;52.398;7.024;2023-12-20T00:27:59;101157.91;;;6.43;100.00
58534;BME280;44109;52.398;7.024;2023-12-20T00:30:27;101152.19;;;6.48;100.00
58534;BME280;44109;52.398;7.024;2023-12-20T00:32:55;101150.09;;;6.45;100.00
58534;BME280;44109;52.398;7.024;2023-12-20T00:35:23;101147.69;;;6.43;100.00
58534;BME280;44109;52.398;7.024;2023-12-20T00:37:50;101152.75;;;6.41;100.00
58534;BME280;44109;52.398;7.024;2023-12-20T00:40:19;101140.28;;;6.35;100.00
58534;BME280;44109;52.398;7.024;2023-12-20T00:42:48;101153.34;;;6.47;100.00
58534;BME280;44109;52.398;7.024;2023-12-20T00:45:15;101151.84;;;6.49;100.00
58534;BME280;44109;52.398;7.024;2023-12-20T00:47:43;101149.44;;;6.48;100.00
58534;BME280;44109;52.398;7.024;2023-12-20T00:50:10;101135.56;;;6.35;100.00
58534;BME280;44109;52.398;7.024;2023-12-20T00:52:38;101148.88;;;6.33;100.00
58534;BME280;44109;52.398;7.024;2023-12-20T00:55:06;101130.69;;;6.12;100.00
58534;BME280;44109;52.398;7.024;2023-12-20T00:57:35;101136.50;;;6.19;100.00
58534;BME280;44109;52.398;7.024;2023-12-20T01:00:03;101135.16;;;6.25;100.00
58534;BME280;44109;52.398;7.024;2023-12-20T01:02:41;101131.78;;;6.19;100.00
58534;BME280;44109;52.398;7.024;2023-12-20T01:05:08;101137.47;;;6.14;100.00
58534;BME280;44109;52.398;7.024;2023-12-20T01:07:36;101126.34;;;6.02;100.00
58534;BME280;44109;52.398;7.024;2023-12-20T01:10:04;101117.94;;;5.90;100.00
58534;BME280;44109;52.398;7.024;2023-12-20T01:12:32;101113.78;;;5.92;100.00
58534;BME280;44109;52.398;7.024;2023-12-20T01:15:04;101115.53;;;5.88;100.00
58534;BME280;44109;52.398;7.024;2023-12-20T01:17:32;101067.44;;;5.47;100.00
58534;BME280;44109;52.398;7.024;2023-12-20T01:20:06;101130.28;;;5.83;100.00
58534;BME280;44109;52.398;7.024;2023-12-20T01:22:37;101129.16;;;5.76;100.00
58534;BME280;44109;52.398;7.024;2023-12-20T01:25:05;101129.31;;;5.79;100.00
58534;BME280;44109;52.398;7.024;2023-12-20T01:27:33;101131.47;;;5.65;100.00
58534;BME280;44109;52.398;7.024;2023-12-20T01:30:02;101148.78;;;5.74;100.00
58534;BME280;44109;52.398;7.024;2023-12-20T01:32:30;101141.94;;;5.80;100.00
58534;BME280;44109;52.398;7.024;2023-12-20T01:34:58;101145.34;;;5.86;100.00
58534;BME280;44109;52.398;7.024;2023-12-20T01:37:28;101130.59;;;5.91;100.00
58534;BME280;44109;52.398;7.024;2023-12-20T01:39:56;101132.06;;;5.88;100.00
58534;BME280;44109;52.398;7.024;2023-12-20T01:42:24;101128.97;;;5.90;100.00
58534;BME280;44109;52.398;7.024;2023-12-20T01:44:52;101119.66;;;5.73;100.00
58534;BME280;44109;52.398;7.024;2023-12-20T01:47:21;101114.28;;;5.77;100.00
58534;BME280;44109;52.398;7.024;2023-12-20T01:49:49;101109.59;;;5.77;100.00
58534;BME280;44109;52.398;7.024;2023-12-20T01:52:23;101118.94;;;5.94;100.00
58534;BME280;44109;52.398;7.024;2023-12-20T01:54:55;101140.13;;;6.02;100.00
58534;BME280;44109;52.398;7.024;2023-12-20T01:57:28;101137.38;;;6.02;100.00
58534;BME280;44109;52.398;7.024;2023-12-20T01:59:56;101124.59;;;5.97;100.00
58534;BME280;44109;52.398;7.024;2023-12-20T02:02:27;101133.66;;;5.98;100.00
58534;BME280;44109;52.398;7.024;2023-12-20T02:04:56;101092.56;;;5.84;100.00
58534;BME280;44109;52.398;7.024;2023-12-20T02:07:24;101129.06;;;6.10;100.00
58534;BME280;44109;52.398;7.024;2023-12-20T02:09:51;101139.56;;;6.17;100.00
58534;BME280;44109;52.398;7.024;2023-12-20T02:12:19;101130.19;;;6.18;100.00
58534;BME280;44109;52.398;7.024;2023-12-20T02:14:48;101113.97;;;6.17;100.00
58534;BME280;44109;52.398;7.024;2023-12-20T02:17:16;101114.09;;;6.20;100.00
58534;BME280;44109;52.398;7.024;2023-12-20T02:19:45;101124.75;;;6.01;100.00
58534;BME280;44109;52.398;7.024;2023-12-20T02:22:14;101125.03;;;6.08;100.00
58534;BME280;44109;52.398;7.024;2023-12-20T02:24:44;101112.41;;;6.07;100.00
58534;BME280;44109;52.398;7.024;2023-12-20T02:27:12;101081.38;;;5.80;100.00
58534;BME280;44109;52.398;7.024;2023-12-20T02:29:42;101116.28;;;6.06;100.00
58534;BME280;44109;52.398;7.024;2023-12-20T02:32:10;101110.22;;;5.92;100.00
58534;BME280;44109;52.398;7.024;2023-12-20T02:34:38;101080.78;;;5.75;100.00
58534;BME280;44109;52.398;7.024;2023-12-20T02:37:05;101107.63;;;5.87;100.00
58534;BME280;44109;52.398;7.024;2023-12-20T02:39:34;101103.38;;;5.89;100.00
58534;BME280;44109;52.398;7.024;2023-12-20T02:42:02;101103.22;;;5.94;100.00
58534;BME280;44109;52.398;7.024;2023-12-20T02:44:33;101095.59;;;6.00;100.00
58534;BME280;44109;52.398;7.024;2023-12-20T02:47:02;101098.00;;;6.01;100.00
58534;BME280;44109;52.398;7.024;2023-12-20T02:49:30;101098.34;;;6.00;100.00
58534;BME280;44109;52.398;7.024;2023-12-20T02:51:57;101097.22;;;6.01;100.00
58534;BME280;44109;52.398;7.024;2023-12-20T02:54:25;101093.50;;;5.97;100.00
58534;BME280;44109;52.398;7.024;2023-12-20T02:56:54;101095.22;;;6.10;100.00
58534;BME280;44109;52.398;7.024;2023-12-20T02:59:22;101095.22;;;6.10;100.00
58534;BME280;44109;52.398;7.024;2023-12-20T03:01:49;101091.03;;;6.04;100.00
58534;BME280;44109;52.398;7.024;2023-12-20T03:04:17;101099.28;;;6.04;100.00
58534;BME280;44109;52.398;7.024;2023-12-20T03:06:47;101088.41;;;6.07;100.00
58534;BME280;44109;52.398;7.024;2023-12-20T03:09:15;101078.69;;;6.10;100.00
58534;BME280;44109;52.398;7.024;2023-12-20T03:11:53;101080.00;;;6.04;100.00
58534;BME280;44109;52.398;7.024;2023-12-20T03:14:21;101071.84;;;6.16;100.00
58534;BME280;44109;52.398;7.024;2023-12-20T03:16:49;101070.88;;;6.12;100.00
58534;BME280;44109;52.398;7.024;2023-12-20T03:19:17;101074.69;;;5.99;100.00
58534;BME280;44109;52.398;7.024;2023-12-20T03:21:45;101078.41;;;6.03;100.00
58534;BME280;44109;52.398;7.024;2023-12-20T03:24:13;101090.94;;;6.21;100.00
58534;BME280;44109;52.398;7.024;2023-12-20T03:26:40;101096.81;;;6.11;100.00
58534;BME280;44109;52.398;7.024;2023-12-20T03:29:09;101090.97;;;6.13;100.00
58534;BME280;44109;52.398;7.024;2023-12-20T03:31:38;101080.41;;;6.23;100.00
58534;BME280;44109;52.398;7.024;2023-12-20T03:34:06;101063.19;;;6.26;100.00
58534;BME280;44109;52.398;7.024;2023-12-20T03:36:33;101071.53;;;6.39;100.00
58534;BME280;44109;52.398;7.024;2023-12-20T03:39:01;101065.78;;;6.31;100.00
58534;BME280;44109;52.398;7.024;2023-12-20T03:41:29;101058.28;;;6.11;100.00
58534;BME280;44109;52.398;7.024;2023-12-20T03:43:57;101038.66;;;6.13;100.00
58534;BME280;44109;52.398;7.024;2023-12-20T03:46:26;101078.78;;;6.22;100.00
58534;BME280;44109;52.398;7.024;2023-12-20T03:48:53;101069.31;;;6.32;100.00
58534;BME280;44109;52.398;7.024;2023-12-20T03:51:21;101073.84;;;6.37;100.00
58534;BME280;44109;52.398;7.024;2023-12-20T03:53:49;101058.28;;;6.53;100.00
58534;BME280;44109;52.398;7.024;2023-12-20T03:56:16;101062.75;;;6.45;100.00
58534;BME280;44109;52.398;7.024;2023-12-20T03:58:44;101070.25;;;6.57;100.00
58534;BME280;44109;52.398;7.024;2023-12-20T04:01:11;101064.75;;;6.57;100.00
58534;BME280;44109;52.398;7.024;2023-12-20T04:03:41;101069.41;;;6.65;100.00
58534;BME280;44109;52.398;7.024;2023-12-20T04:06:08;101047.22;;;6.41;100.00
58534;BME280;44109;52.398;7.024;2023-12-20T04:08:36;101060.91;;;6.70;100.00
58534;BME280;44109;52.398;7.024;2023-12-20T04:11:03;101062.06;;;6.69;100.00
58534;BME280;44109;52.398;7.024;2023-12-20T04:13:31;101068.81;;;6.59;100.00
58534;BME280;44109;52.398;7.024;2023-12-20T04:15:59;101072.81;;;6.62;100.00
58534;BME280;44109;52.398;7.024;2023-12-20T04:18:26;101074.69;;;6.70;100.00
58534;BME280;44109;52.398;7.024;2023-12-20T04:20:55;101059.00;;;6.50;100.00
58534;BME280;44109;52.398;7.024;2023-12-20T04:23:23;101070.28;;;6.78;100.00
58534;BME280;44109;52.398;7.024;2023-12-20T04:25:51;101057.22;;;6.66;100.00
58534;BME280;44109;52.398;7.024;2023-12-20T04:28:18;101061.94;;;6.66;100.00
58534;BME280;44109;52.398;7.024;2023-12-20T04:30:46;101045.72;;;6.43;100.00
58534;BME280;44109;52.398;7.024;2023-12-20T04:33:13;101051.63;;;6.54;100.00
58534;BME280;44109;52.398;7.024;2023-12-20T04:35:41;101046.81;;;6.51;100.00
58534;BME280;44109;52.398;7.024;2023-12-20T04:38:10;101056.00;;;6.34;100.00
58534;BME280;44109;52.398;7.024;2023-12-20T04:40:39;101035.06;;;6.42;100.00
58534;BME280;44109;52.398;7.024;2023-12-20T04:43:08;101032.53;;;6.07;100.00
58534;BME280;44109;52.398;7.024;2023-12-20T04:45:35;101030.88;;;6.15;100.00
58534;BME280;44109;52.398;7.024;2023-12-20T04:48:06;101036.78;;;6.25;100.00
58534;BME280;44109;52.398;7.024;2023-12-20T04:50:34;101028.31;;;6.30;100.00
58534;BME280;44109;52.398;7.024;2023-12-20T04:53:02;101036.53;;;6.39;100.00
58534;BME280;44109;52.398;7.024;2023-12-20T04:55:31;101042.03;;;6.39;100.00
58534;BME280;44109;52.398;7.024;2023-12-20T04:57:58;101024.75;;;6.30;100.00
58534;BME280;44109;52.398;7.024;2023-12-20T05:00:26;101049.09;;;6.28;100.00
58534;BME280;44109;52.398;7.024;2023-12-20T05:02:55;101049.41;;;6.26;100.00
58534;BME280;44109;52.398;7.024;2023-12-20T05:05:23;101052.81;;;6.32;100.00
58534;BME280;44109;52.398;7.024;2023-12-20T05:07:51;101040.78;;;6.37;100.00
58534;BME280;44109;52.398;7.024;2023-12-20T05:10:19;100981.97;;;6.12;100.00
58534;BME280;44109;52.398;7.024;2023-12-20T05:12:47;101037.84;;;6.54;100.00
58534;BME280;44109;52.398;7.024;2023-12-20T05:15:15;101036.75;;;6.55;100.00
58534;BME280;44109;52.398;7.024;2023-12-20T05:17:43;100996.47;;;6.42;100.00
58534;BME280;44109;52.398;7.024;2023-12-20T05:20:11;101023.19;;;6.62;100.00
58534;BME280;44109;52.398;7.024;2023-12-20T05:22:38;101014.19;;;6.53;100.00
58534;BME280;44109;52.398;7.024;2023-12-20T05:25:06;101026.44;;;6.64;100.00
58534;BME280;44109;52.398;7.024;2023-12-20T05:27:34;101025.63;;;6.64;100.00
58534;BME280;44109;52.398;7.024;2023-12-20T05:30:03;101031.88;;;6.73;100.00
58534;BME280;44109;52.398;7.024;2023-12-20T05:32:31;101035.16;;;6.66;100.00
58534;BME280;44109;52.398;7.024;2023-12-20T05:34:59;101026.59;;;6.80;100.00
58534;BME280;44109;52.398;7.024;2023-12-20T05:37:29;101026.09;;;6.66;100.00
58534;BME280;44109;52.398;7.024;2023-12-20T05:39:56;101030.31;;;6.84;100.00
58534;BME280;44109;52.398;7.024;2023-12-20T05:42:24;100997.72;;;6.65;100.00
58534;BME280;44109;52.398;7.024;2023-12-20T05:44:52;101017.25;;;6.60;100.00
58534;BME280;44109;52.398;7.024;2023-12-20T05:47:21;101021.44;;;6.78;100.00
58534;BME280;44109;52.398;7.024;2023-12-20T05:49:49;101031.53;;;6.74;100.00
58534;BME280;44109;52.398;7.024;2023-12-20T05:52:17;100999.75;;;6.56;100.00
58534;BME280;44109;52.398;7.024;2023-12-20T05:54:44;101023.53;;;6.81;100.00
58534;BME280;44109;52.398;7.024;2023-12-20T05:57:12;101027.19;;;6.73;100.00
58534;BME280;44109;52.398;7.024;2023-12-20T05:59:42;101022.59;;;6.77;100.00
58534;BME280;44109;52.398;7.024;2023-12-20T06:02:10;101005.19;;;6.65;100.00
58534;BME280;44109;52.398;7.024;2023-12-20T06:04:46;101022.38;;;6.82;100.00
58534;BME280;44109;52.398;7.024;2023-12-20T06:07:14;101009.63;;;6.78;100.00
58534;BME280;44109;52.398;7.024;2023-12-20T06:09:42;101031.09;;;6.84;100.00
58534;BME280;44109;52.398;7.024;2023-12-20T06:12:10;101028.13;;;6.90;100.00
58534;BME280;44109;52.398;7.024;2023-12-20T06:14:38;101032.03;;;6.89;100.00
58534;BME280;44109;52.398;7.024;2023-12-20T06:17:06;101030.44;;;6.88;100.00
58534;BME280;44109;52.398;7.024;2023-12-20T06:19:36;101022.03;;;6.84;100.00
58534;BME280;44109;52.398;7.024;2023-12-20T06:22:05;101020.28;;;6.79;100.00
58534;BME280;44109;52.398;7.024;2023-12-20T06:24:32;101025.28;;;6.86;100.00
58534;BME280;44109;52.398;7.024;2023-12-20T06:27:00;100996.03;;;6.73;100.00
58534;BME280;44109;52.398;7.024;2023-12-20T06:29:28;101005.41;;;6.93;100.00
58534;BME280;44109;52.398;7.024;2023-12-20T06:31:56;101013.75;;;6.84;100.00
58534;BME280;44109;52.398;7.024;2023-12-20T06:34:24;101006.06;;;6.90;100.00
58534;BME280;44109;52.398;7.024;2023-12-20T06:36:55;100992.81;;;6.71;100.00
58534;BME280;44109;52.398;7.024;2023-12-20T06:39:24;101008.81;;;6.77;100.00
58534;BME280;44109;52.398;7.024;2023-12-20T06:41:54;101008.38;;;6.88;100.00
58534;BME280;44109;52.398;7.024;2023-12-20T06:44:21;100989.25;;;6.70;100.00
58534;BME280;44109;52.398;7.024;2023-12-20T06:46:49;101010.19;;;6.83;100.00
58534;BME280;44109;52.398;7.024;2023-12-20T06:49:17;100995.97;;;6.94;100.00
58534;BME280;44109;52.398;7.024;2023-12-20T06:51:44;101001.25;;;6.86;100.00
58534;BME280;44109;52.398;7.024;2023-12-20T06:54:12;100966.53;;;6.52;100.00
58534;BME280;44109;52.398;7.024;2023-12-20T06:56:41;100998.25;;;6.79;100.00
58534;BME280;44109;52.398;7.024;2023-12-20T06:59:09;100997.28;;;7.08;100.00
58534;BME280;44109;52.398;7.024;2023-12-20T07:01:36;100998.28;;;6.92;100.00
58534;BME280;44109;52.398;7.024;2023-12-20T07:04:04;101008.63;;;6.95;100.00
58534;BME280;44109;52.398;7.024;2023-12-20T07:06:34;100993.59;;;6.71;100.00
58534;BME280;44109;52.398;7.024;2023-12-20T07:09:02;100966.47;;;6.61;100.00
58534;BME280;44109;52.398;7.024;2023-12-20T07:11:30;100990.72;;;7.01;100.00
58534;BME280;44109;52.398;7.024;2023-12-20T07:13:59;100981.69;;;6.79;100.00
58534;BME280;44109;52.398;7.024;2023-12-20T07:16:27;100985.09;;;6.97;100.00
58534;BME280;44109;52.398;7.024;2023-12-20T07:18:54;100949.53;;;6.83;100.00
58534;BME280;44109;52.398;7.024;2023-12-20T07:21:23;100987.41;;;7.07;100.00
58534;BME280;44109;52.398;7.024;2023-12-20T07:23:50;100985.44;;;7.08;100.00
58534;BME280;44109;52.398;7.024;2023-12-20T07:26:18;100975.38;;;7.24;100.00
58534;BME280;44109;52.398;7.024;2023-12-20T07:28:45;100981.78;;;7.16;100.00
58534;BME280;44109;52.398;7.024;2023-12-20T07:31:15;100979.50;;;7.18;100.00
58534;BME280;44109;52.398;7.024;2023-12-20T07:33:42;100959.22;;;7.02;100.00
58534;BME280;44109;52.398;7.024;2023-12-20T07:36:10;100983.63;;;7.12;100.00
58534;BME280;44109;52.398;7.024;2023-12-20T07:38:39;100953.47;;;6.95;100.00
58534;BME280;44109;52.398;7.024;2023-12-20T07:41:09;100969.59;;;7.05;100.00
58534;BME280;44109;52.398;7.024;2023-12-20T07:43:40;100972.59;;;7.24;100.00
58534;BME280;44109;52.398;7.024;2023-12-20T07:46:10;100975.91;;;7.05;100.00
58534;BME280;44109;52.398;7.024;2023-12-20T07:48:39;100982.59;;;7.17;100.00
58534;BME280;44109;52.398;7.024;2023-12-20T07:51:07;100975.56;;;7.07;100.00
58534;BME280;44109;52.398;7.024;2023-12-20T07:53:35;100950.88;;;7.10;100.00
58534;BME280;44109;52.398;7.024;2023-12-20T07:56:13;100952.84;;;7.22;100.00
58534;BME280;44109;52.398;7.024;2023-12-20T07:58:41;100946.63;;;7.13;100.00
58534;BME280;44109;52.398;7.024;2023-12-20T08:01:10;100963.53;;;7.36;100.00
58534;BME280;44109;52.398;7.024;2023-12-20T08:03:38;100969.16;;;7.40;100.00
58534;BME280;44109;52.398;7.024;2023-12-20T08:06:07;100972.94;;;7.35;100.00
58534;BME280;44109;52.398;7.024;2023-12-20T08:08:34;100957.09;;;7.32;100.00
58534;BME280;44109;52.398;7.024;2023-12-20T08:11:02;100970.78;;;7.41;100.00
58534;BME280;44109;52.398;7.024;2023-12-20T08:13:30;100968.47;;;7.43;100.00
58534;BME280;44109;52.398;7.024;2023-12-20T08:15:57;100973.31;;;7.46;100.00
58534;BME280;44109;52.398;7.024;2023-12-20T08:18:25;100962.13;;;7.30;100.00
58534;BME280;44109;52.398;7.024;2023-12-20T08:20:54;100980.44;;;7.34;100.00
58534;BME280;44109;52.398;7.024;2023-12-20T08:23:25;100980.66;;;7.54;100.00
58534;BME280;44109;52.398;7.024;2023-12-20T08:25:52;100967.56;;;7.38;100.00
58534;BME280;44109;52.398;7.024;2023-12-20T08:28:20;100973.31;;;7.46;100.00
58534;BME280;44109;52.398;7.024;2023-12-20T08:30:48;100974.94;;;7.47;100.00
58534;BME280;44109;52.398;7.024;2023-12-20T08:33:19;100958.13;;;7.40;100.00
58534;BME280;44109;52.398;7.024;2023-12-20T08:35:47;100966.41;;;7.40;100.00
58534;BME280;44109;52.398;7.024;2023-12-20T08:38:16;100958.25;;;7.43;100.00
58534;BME280;44109;52.398;7.024;2023-12-20T08:40:44;100932.84;;;7.13;100.00
58534;BME280;44109;52.398;7.024;2023-12-20T08:43:12;100956.06;;;7.24;100.00
58534;BME280;44109;52.398;7.024;2023-12-20T08:45:39;100973.06;;;7.38;100.00
58534;BME280;44109;52.398;7.024;2023-12-20T08:48:07;100959.38;;;7.30;100.00
58534;BME280;44109;52.398;7.024;2023-12-20T08:50:35;100961.81;;;7.31;100.00
58534;BME280;44109;52.398;7.024;2023-12-20T08:53:05;100961.69;;;7.52;100.00
58534;BME280;44109;52.398;7.024;2023-12-20T08:55:34;100946.75;;;7.29;100.00
58534;BME280;44109;52.398;7.024;2023-12-20T08:58:02;100941.91;;;7.26;100.00
58534;BME280;44109;52.398;7.024;2023-12-20T09:00:32;100956.97;;;7.28;100.00
58534;BME280;44109;52.398;7.024;2023-12-20T09:03:01;100970.19;;;7.23;100.00
58534;BME280;44109;52.398;7.024;2023-12-20T09:05:29;100949.56;;;7.08;100.00
58534;BME280;44109;52.398;7.024;2023-12-20T09:07:59;100969.50;;;7.26;100.00
58534;BME280;44109;52.398;7.024;2023-12-20T09:10:27;100949.94;;;7.31;100.00
58534;BME280;44109;52.398;7.024;2023-12-20T09:12:56;100966.16;;;7.20;100.00
58534;BME280;44109;52.398;7.024;2023-12-20T09:15:25;100959.16;;;7.23;100.00
58534;BME280;44109;52.398;7.024;2023-12-20T09:17:53;100971.00;;;7.23;100.00
58534;BME280;44109;52.398;7.024;2023-12-20T09:20:22;100978.38;;;7.44;100.00
58534;BME280;44109;52.398;7.024;2023-12-20T09:22:50;100934.97;;;7.07;100.00
58534;BME280;44109;52.398;7.024;2023-12-20T09:25:18;100973.09;;;7.51;100.00
58534;BME280;44109;52.398;7.024;2023-12-20T09:27:45;100973.31;;;7.58;100.00
58534;BME280;44109;52.398;7.024;2023-12-20T09:30:14;100978.38;;;7.56;100.00
58534;BME280;44109;52.398;7.024;2023-12-20T09:32:43;100970.78;;;7.53;100.00
58534;BME280;44109;52.398;7.024;2023-12-20T09:35:11;100968.13;;;7.56;100.00
58534;BME280;44109;52.398;7.024;2023-12-20T09:37:38;100973.53;;;7.53;100.00
58534;BME280;44109;52.398;7.024;2023-12-20T09:40:09;100982.06;;;7.48;100.00
58534;BME280;44109;52.398;7.024;2023-12-20T09:42:48;100969.41;;;7.47;100.00
58534;BME280;44109;52.398;7.024;2023-12-20T09:45:25;100942.69;;;7.26;100.00
58534;BME280;44109;52.398;7.024;2023-12-20T09:47:53;100986.53;;;7.65;100.00
58534;BME280;44109;52.398;7.024;2023-12-20T09:50:21;100992.28;;;7.72;100.00
58534;BME280;44109;52.398;7.024;2023-12-20T09:52:50;100995.41;;;7.70;100.00
58534;BME280;44109;52.398;7.024;2023-12-20T09:55:20;100985.75;;;7.64;100.00
58534;BME280;44109;52.398;7.024;2023-12-20T09:57:49;100988.38;;;7.60;100.00
58534;BME280;44109;52.398;7.024;2023-12-20T10:00:17;100965.94;;;7.62;100.00
58534;BME280;44109;52.398;7.024;2023-12-20T10:02:50;100985.50;;;7.81;100.00
58534;BME280;44109;52.398;7.024;2023-12-20T10:05:27;100988.97;;;7.78;100.00
58534;BME280;44109;52.398;7.024;2023-12-20T10:07:56;100975.25;;;7.82;100.00
58534;BME280;44109;52.398;7.024;2023-12-20T10:10:24;100979.50;;;7.79;100.00
58534;BME280;44109;52.398;7.024;2023-12-20T10:13:02;101000.22;;;7.73;100.00
58534;BME280;44109;52.398;7.024;2023-12-20T10:15:32;100993.88;;;7.85;100.00
58534;BME280;44109;52.398;7.024;2023-12-20T10:18:01;100987.31;;;7.89;100.00
58534;BME280;44109;52.398;7.024;2023-12-20T10:20:30;100989.28;;;8.01;100.00
58534;BME280;44109;52.398;7.024;2023-12-20T10:22:59;100983.44;;;7.91;100.00
58534;BME280;44109;52.398;7.024;2023-12-20T10:25:27;100981.78;;;8.14;100.00
58534;BME280;44109;52.398;7.024;2023-12-20T10:28:09;100962.44;;;8.02;100.00
58534;BME280;44109;52.398;7.024;2023-12-20T10:30:38;100973.00;;;8.12;100.00
58534;BME280;44109;52.398;7.024;2023-12-20T10:33:08;100970.25;;;8.12;100.00
58534;BME280;44109;52.398;7.024;2023-12-20T10:35:38;100960.25;;;8.07;100.00
58534;BME280;44109;52.398;7.024;2023-12-20T10:38:07;100956.00;;;7.98;100.00
58534;BME280;44109;52.398;7.024;2023-12-20T10:40:36;100960.03;;;8.00;100.00
58534;BME280;44109;52.398;7.024;2023-12-20T10:43:04;100945.88;;;8.02;100.00
58534;BME280;44109;52.398;7.024;2023-12-20T10:45:32;100928.06;;;7.87;100.00
58534;BME280;44109;52.398;7.024;2023-12-20T10:48:01;100944.59;;;7.99;100.00
58534;BME280;44109;52.398;7.024;2023-12-20T10:50:31;100940.88;;;8.20;100.00
58534;BME280;44109;52.398;7.024;2023-12-20T10:52:59;100932.66;;;7.95;100.00
58534;BME280;44109;52.398;7.024;2023-12-20T10:55:27;100931.41;;;7.93;100.00
58534;BME280;44109;52.398;7.024;2023-12-20T10:58:00;100940.56;;;8.09;100.00
58534;BME280;44109;52.398;7.024;2023-12-20T11:00:41;100933.56;;;7.99;100.00
58534;BME280;44109;52.398;7.024;2023-12-20T11:03:13;100932.28;;;8.09;100.00
58534;BME280;44109;52.398;7.024;2023-12-20T11:05:50;100933.66;;;8.03;100.00
58534;BME280;44109;52.398;7.024;2023-12-20T11:08:29;100938.94;;;8.08;100.00
58534;BME280;44109;52.398;7.024;2023-12-20T11:11:06;100938.47;;;8.18;100.00
58534;BME280;44109;52.398;7.024;2023-12-20T11:13:48;100962.38;;;7.49;100.00
58534;BME280;44109;52.398;7.024;2023-12-20T11:16:22;100977.97;;;7.08;100.00
58534;BME280;44109;52.398;7.024;2023-12-20T11:18:51;100977.75;;;7.01;100.00
58534;BME280;44109;52.398;7.024;2023-12-20T11:21:20;100982.91;;;7.03;100.00
58534;BME280;44109;52.398;7.024;2023-12-20T11:23:48;100989.34;;;7.07;100.00
58534;BME280;44109;52.398;7.024;2023-12-20T11:26:16;100994.13;;;6.85;100.00
58534;BME280;44109;52.398;7.024;2023-12-20T11:28:43;100992.16;;;6.53;100.00
58534;BME280;44109;52.398;7.024;2023-12-20T11:31:14;100987.53;;;6.45;100.00
58534;BME280;44109;52.398;7.024;2023-12-20T11:33:43;100986.50;;;6.49;100.00
58534;BME280;44109;52.398;7.024;2023-12-20T11:36:14;100982.69;;;6.42;100.00
58534;BME280;44109;52.398;7.024;2023-12-20T11:38:56;100974.63;;;6.91;100.00
58534;BME280;44109;52.398;7.024;2023-12-20T11:41:26;100979.38;;;7.15;100.00
58534;BME280;44109;52.398;7.024;2023-12-20T11:43:53;100969.22;;;6.94;100.00
58534;BME280;44109;52.398;7.024;2023-12-20T11:46:22;100979.47;;;7.06;100.00
58534;BME280;44109;52.398;7.024;2023-12-20T11:48:50;100973.94;;;7.06;100.00
58534;BME280;44109;52.398;7.024;2023-12-20T11:51:18;100970.44;;;6.84;100.00
58534;BME280;44109;52.398;7.024;2023-12-20T11:53:51;100947.44;;;7.38;100.00
58534;BME280;44109;52.398;7.024;2023-12-20T11:56:21;100964.31;;;7.12;100.00
58534;BME280;44109;52.398;7.024;2023-12-20T11:58:49;100967.75;;;7.21;100.00
58534;BME280;44109;52.398;7.024;2023-12-20T12:01:19;100968.00;;;7.28;100.00
58534;BME280;44109;52.398;7.024;2023-12-20T12:03:47;100978.16;;;7.36;100.00
58534;BME280;44109;52.398;7.024;2023-12-20T12:06:14;100975.97;;;6.84;100.00
58534;BME280;44109;52.398;7.024;2023-12-20T12:08:43;100959.03;;;7.19;100.00
58534;BME280;44109;52.398;7.024;2023-12-20T12:11:11;100968.50;;;6.85;100.00
58534;BME280;44109;52.398;7.024;2023-12-20T12:13:39;100959.91;;;6.99;100.00
58534;BME280;44109;52.398;7.024;2023-12-20T12:16:06;100973.19;;;6.84;100.00
58534;BME280;44109;52.398;7.024;2023-12-20T12:18:35;100971.19;;;6.40;100.00
58534;BME280;44109;52.398;7.024;2023-12-20T12:21:03;100968.56;;;6.64;100.00
58534;BME280;44109;52.398;7.024;2023-12-20T12:23:31;100968.03;;;6.83;100.00
58534;BME280;44109;52.398;7.024;2023-12-20T12:25:58;100958.75;;;6.88;100.00
58534;BME280;44109;52.398;7.024;2023-12-20T12:28:26;100949.56;;;6.96;100.00
58534;BME280;44109;52.398;7.024;2023-12-20T12:31:07;100949.59;;;6.63;100.00
58534;BME280;44109;52.398;7.024;2023-12-20T12:33:34;100921.94;;;6.71;100.00
58534;BME280;44109;52.398;7.024;2023-12-20T12:36:05;100906.16;;;7.29;100.00
58534;BME280;44109;52.398;7.024;2023-12-20T12:38:34;100909.38;;;7.31;100.00
58534;BME280;44109;52.398;7.024;2023-12-20T12:41:04;100907.53;;;7.11;100.00
58534;BME280;44109;52.398;7.024;2023-12-20T12:43:33;100907.31;;;7.41;100.00
58534;BME280;44109;52.398;7.024;2023-12-20T12:46:02;100915.34;;;7.46;100.00
58534;BME280;44109;52.398;7.024;2023-12-20T12:48:30;100918.53;;;6.99;100.00
58534;BME280;44109;52.398;7.024;2023-12-20T12:50:57;100914.09;;;7.43;100.00
58534;BME280;44109;52.398;7.024;2023-12-20T12:53:25;100894.66;;;7.40;100.00
58534;BME280;44109;52.398;7.024;2023-12-20T12:55:56;100906.72;;;7.35;100.00
58534;BME280;44109;52.398;7.024;2023-12-20T12:58:24;100900.84;;;7.73;100.00